Coqueiro Seco, Brazil
Current Conditions -  °F | °C
As of 9:00 AM on Monday 24 Nov 2014 (Local Time) from SBMO Reporting Station
Scattered Clouds Scattered Clouds  
Wind Chill: 86°   Ceiling: Unl
Heat Index: 90°   Visibility: 6mi
Dew Point: 70°   Wind: 13mph
Humidity: 58%   Direction: 50°NE
Pressure: 30"   Gusts: NA
Location:  9.64°S, 35.8°W
Report Text: SBMO 241200Z 05011KT 9999 SCT020 30/21 Q1016
Loading
Personal Weather Stations






























Interactive Weather Map New forecast layout! Learn more

10-Day Weather Forecast

Advertisements
Track Severe Weather on mobile